sensor_id;sensor_type;location;lat;lon;timestamp;P1;durP1;ratioP1;P2;durP2;ratioP2
15398;SDS011;7797;51.428;6.756;2024-03-02T00:00:38;1.63;;;1.27;;
15398;SDS011;7797;51.428;6.756;2024-03-02T00:03:06;1.70;;;1.60;;
15398;SDS011;7797;51.428;6.756;2024-03-02T00:05:36;1.50;;;1.40;;
15398;SDS011;7797;51.428;6.756;2024-03-02T00:08:02;1.40;;;1.40;;
15398;SDS011;7797;51.428;6.756;2024-03-02T00:10:37;1.53;;;1.40;;
15398;SDS011;7797;51.428;6.756;2024-03-02T00:13:07;2.30;;;1.27;;
15398;SDS011;7797;51.428;6.756;2024-03-02T00:18:11;1.77;;;1.67;;
15398;SDS011;7797;51.428;6.756;2024-03-02T00:20:40;1.67;;;1.10;;
15398;SDS011;7797;51.428;6.756;2024-03-02T00:23:08;2.30;;;1.33;;
15398;SDS011;7797;51.428;6.756;2024-03-02T00:25:41;1.50;;;1.40;;
15398;SDS011;7797;51.428;6.756;2024-03-02T00:28:25;1.57;;;1.50;;
15398;SDS011;7797;51.428;6.756;2024-03-02T00:33:45;1.37;;;1.27;;
15398;SDS011;7797;51.428;6.756;2024-03-02T00:36:17;1.27;;;1.10;;
15398;SDS011;7797;51.428;6.756;2024-03-02T00:38:49;1.70;;;1.60;;
15398;SDS011;7797;51.428;6.756;2024-03-02T00:41:21;1.77;;;1.30;;
15398;SDS011;7797;51.428;6.756;2024-03-02T00:44:01;2.33;;;1.40;;
15398;SDS011;7797;51.428;6.756;2024-03-02T00:46:36;1.30;;;1.30;;
15398;SDS011;7797;51.428;6.756;2024-03-02T00:49:04;1.50;;;1.40;;
15398;SDS011;7797;51.428;6.756;2024-03-02T00:51:48;1.30;;;1.20;;
15398;SDS011;7797;51.428;6.756;2024-03-02T00:54:20;1.20;;;1.20;;
15398;SDS011;7797;51.428;6.756;2024-03-02T00:56:48;1.57;;;1.47;;
15398;SDS011;7797;51.428;6.756;2024-03-02T00:59:15;1.60;;;1.50;;
15398;SDS011;7797;51.428;6.756;2024-03-02T01:01:42;3.50;;;1.63;;
15398;SDS011;7797;51.428;6.756;2024-03-02T01:04:09;1.63;;;1.53;;
15398;SDS011;7797;51.428;6.756;2024-03-02T01:06:36;1.40;;;1.30;;
15398;SDS011;7797;51.428;6.756;2024-03-02T01:09:03;1.17;;;1.00;;
15398;SDS011;7797;51.428;6.756;2024-03-02T01:11:30;2.97;;;0.97;;
15398;SDS011;7797;51.428;6.756;2024-03-02T01:13:59;1.80;;;1.20;;
15398;SDS011;7797;51.428;6.756;2024-03-02T01:16:26;1.30;;;1.30;;
15398;SDS011;7797;51.428;6.756;2024-03-02T01:18:53;1.73;;;1.50;;
15398;SDS011;7797;51.428;6.756;2024-03-02T01:21:20;1.10;;;1.00;;
15398;SDS011;7797;51.428;6.756;2024-03-02T01:23:47;1.47;;;1.30;;
15398;SDS011;7797;51.428;6.756;2024-03-02T01:26:13;1.57;;;1.47;;
15398;SDS011;7797;51.428;6.756;2024-03-02T01:28:40;1.43;;;1.33;;
15398;SDS011;7797;51.428;6.756;2024-03-02T01:31:07;1.70;;;1.43;;
15398;SDS011;7797;51.428;6.756;2024-03-02T01:33:33;1.13;;;1.13;;
15398;SDS011;7797;51.428;6.756;2024-03-02T01:36:00;1.50;;;1.13;;
15398;SDS011;7797;51.428;6.756;2024-03-02T01:38:27;1.20;;;1.20;;
15398;SDS011;7797;51.428;6.756;2024-03-02T01:40:55;1.60;;;1.50;;
15398;SDS011;7797;51.428;6.756;2024-03-02T01:43:23;1.10;;;1.10;;
15398;SDS011;7797;51.428;6.756;2024-03-02T01:45:50;1.50;;;1.40;;
15398;SDS011;7797;51.428;6.756;2024-03-02T01:48:17;1.30;;;1.20;;
15398;SDS011;7797;51.428;6.756;2024-03-02T01:50:43;1.53;;;1.00;;
15398;SDS011;7797;51.428;6.756;2024-03-02T01:53:10;1.47;;;1.40;;
15398;SDS011;7797;51.428;6.756;2024-03-02T01:55:37;1.83;;;1.30;;
15398;SDS011;7797;51.428;6.756;2024-03-02T01:58:04;2.53;;;1.30;;
15398;SDS011;7797;51.428;6.756;2024-03-02T02:00:31;1.13;;;1.10;;
15398;SDS011;7797;51.428;6.756;2024-03-02T02:02:59;2.07;;;1.93;;
15398;SDS011;7797;51.428;6.756;2024-03-02T02:05:25;1.00;;;1.00;;
15398;SDS011;7797;51.428;6.756;2024-03-02T02:07:52;1.33;;;1.23;;
15398;SDS011;7797;51.428;6.756;2024-03-02T02:10:19;1.33;;;1.20;;
15398;SDS011;7797;51.428;6.756;2024-03-02T02:12:46;1.30;;;1.20;;
15398;SDS011;7797;51.428;6.756;2024-03-02T02:15:22;1.50;;;1.40;;
15398;SDS011;7797;51.428;6.756;2024-03-02T02:17:49;2.00;;;1.37;;
15398;SDS011;7797;51.428;6.756;2024-03-02T02:20:16;1.40;;;1.30;;
15398;SDS011;7797;51.428;6.756;2024-03-02T02:22:56;1.27;;;1.17;;
15398;SDS011;7797;51.428;6.756;2024-03-02T02:25:30;1.30;;;1.20;;
15398;SDS011;7797;51.428;6.756;2024-03-02T02:27:57;1.20;;;1.10;;
15398;SDS011;7797;51.428;6.756;2024-03-02T02:30:29;2.20;;;1.33;;
15398;SDS011;7797;51.428;6.756;2024-03-02T02:32:57;1.10;;;1.10;;
15398;SDS011;7797;51.428;6.756;2024-03-02T02:35:24;1.73;;;0.93;;
15398;SDS011;7797;51.428;6.756;2024-03-02T02:37:52;1.53;;;1.30;;
15398;SDS011;7797;51.428;6.756;2024-03-02T02:40:20;1.20;;;1.10;;
15398;SDS011;7797;51.428;6.756;2024-03-02T02:42:47;1.23;;;1.13;;
15398;SDS011;7797;51.428;6.756;2024-03-02T02:45:14;1.93;;;1.40;;
15398;SDS011;7797;51.428;6.756;2024-03-02T02:47:42;1.10;;;1.10;;
15398;SDS011;7797;51.428;6.756;2024-03-02T02:50:10;1.27;;;1.17;;
15398;SDS011;7797;51.428;6.756;2024-03-02T02:52:39;1.40;;;1.30;;
15398;SDS011;7797;51.428;6.756;2024-03-02T02:55:10;1.50;;;1.40;;
15398;SDS011;7797;51.428;6.756;2024-03-02T02:57:41;1.43;;;1.33;;
15398;SDS011;7797;51.428;6.756;2024-03-02T03:00:13;2.40;;;1.20;;
15398;SDS011;7797;51.428;6.756;2024-03-02T03:02:43;1.00;;;1.00;;
15398;SDS011;7797;51.428;6.756;2024-03-02T03:05:12;1.67;;;1.40;;
15398;SDS011;7797;51.428;6.756;2024-03-02T03:07:40;1.43;;;1.33;;
15398;SDS011;7797;51.428;6.756;2024-03-02T03:10:08;1.33;;;1.23;;
15398;SDS011;7797;51.428;6.756;2024-03-02T03:12:35;1.83;;;1.50;;
15398;SDS011;7797;51.428;6.756;2024-03-02T03:15:02;1.50;;;1.40;;
15398;SDS011;7797;51.428;6.756;2024-03-02T03:17:31;1.50;;;1.40;;
15398;SDS011;7797;51.428;6.756;2024-03-02T03:19:58;2.10;;;1.30;;
15398;SDS011;7797;51.428;6.756;2024-03-02T03:22:25;1.00;;;1.00;;
15398;SDS011;7797;51.428;6.756;2024-03-02T03:24:52;1.20;;;1.20;;
15398;SDS011;7797;51.428;6.756;2024-03-02T03:27:19;1.13;;;1.10;;
15398;SDS011;7797;51.428;6.756;2024-03-02T03:29:49;1.70;;;1.60;;
15398;SDS011;7797;51.428;6.756;2024-03-02T03:32:15;1.43;;;1.33;;
15398;SDS011;7797;51.428;6.756;2024-03-02T03:34:43;2.60;;;1.70;;
15398;SDS011;7797;51.428;6.756;2024-03-02T03:37:10;1.50;;;1.40;;
15398;SDS011;7797;51.428;6.756;2024-03-02T03:39:37;2.00;;;1.73;;
15398;SDS011;7797;51.428;6.756;2024-03-02T03:42:03;1.63;;;1.53;;
15398;SDS011;7797;51.428;6.756;2024-03-02T03:44:30;1.53;;;1.37;;
15398;SDS011;7797;51.428;6.756;2024-03-02T03:46:57;1.93;;;1.50;;
15398;SDS011;7797;51.428;6.756;2024-03-02T03:49:24;1.57;;;1.47;;
15398;SDS011;7797;51.428;6.756;2024-03-02T03:51:51;1.80;;;1.70;;
15398;SDS011;7797;51.428;6.756;2024-03-02T03:54:18;1.60;;;1.50;;
15398;SDS011;7797;51.428;6.756;2024-03-02T03:56:44;1.60;;;1.50;;
15398;SDS011;7797;51.428;6.756;2024-03-02T03:59:11;1.70;;;1.60;;
15398;SDS011;7797;51.428;6.756;2024-03-02T04:01:38;3.30;;;1.70;;
15398;SDS011;7797;51.428;6.756;2024-03-02T04:04:05;1.50;;;1.40;;
15398;SDS011;7797;51.428;6.756;2024-03-02T04:06:31;1.63;;;1.43;;
15398;SDS011;7797;51.428;6.756;2024-03-02T04:08:59;2.43;;;2.10;;
15398;SDS011;7797;51.428;6.756;2024-03-02T04:11:25;1.80;;;1.70;;
15398;SDS011;7797;51.428;6.756;2024-03-02T04:13:52;1.30;;;1.30;;
15398;SDS011;7797;51.428;6.756;2024-03-02T04:16:22;2.90;;;1.40;;
15398;SDS011;7797;51.428;6.756;2024-03-02T04:18:49;1.30;;;1.20;;
15398;SDS011;7797;51.428;6.756;2024-03-02T04:21:16;1.70;;;1.60;;
15398;SDS011;7797;51.428;6.756;2024-03-02T04:23:42;1.83;;;1.50;;
15398;SDS011;7797;51.428;6.756;2024-03-02T04:26:09;1.30;;;1.20;;
15398;SDS011;7797;51.428;6.756;2024-03-02T04:28:36;2.80;;;1.60;;
15398;SDS011;7797;51.428;6.756;2024-03-02T04:31:03;1.40;;;1.30;;
15398;SDS011;7797;51.428;6.756;2024-03-02T04:33:30;1.80;;;1.40;;
15398;SDS011;7797;51.428;6.756;2024-03-02T04:35:57;1.43;;;1.33;;
15398;SDS011;7797;51.428;6.756;2024-03-02T04:38:24;1.60;;;1.50;;
15398;SDS011;7797;51.428;6.756;2024-03-02T04:40:50;1.97;;;1.40;;
15398;SDS011;7797;51.428;6.756;2024-03-02T04:43:17;1.93;;;1.70;;
15398;SDS011;7797;51.428;6.756;2024-03-02T04:45:45;1.53;;;1.43;;
15398;SDS011;7797;51.428;6.756;2024-03-02T04:48:12;1.53;;;1.43;;
15398;SDS011;7797;51.428;6.756;2024-03-02T04:50:40;1.70;;;1.40;;
15398;SDS011;7797;51.428;6.756;2024-03-02T04:53:07;2.00;;;1.53;;
15398;SDS011;7797;51.428;6.756;2024-03-02T04:55:34;1.60;;;1.50;;
15398;SDS011;7797;51.428;6.756;2024-03-02T04:58:01;1.60;;;1.50;;
15398;SDS011;7797;51.428;6.756;2024-03-02T05:00:28;2.63;;;1.50;;
15398;SDS011;7797;51.428;6.756;2024-03-02T05:02:54;1.43;;;1.33;;
15398;SDS011;7797;51.428;6.756;2024-03-02T05:05:21;1.40;;;1.30;;
15398;SDS011;7797;51.428;6.756;2024-03-02T05:07:48;3.30;;;1.80;;
15398;SDS011;7797;51.428;6.756;2024-03-02T05:10:15;1.40;;;1.20;;
15398;SDS011;7797;51.428;6.756;2024-03-02T05:12:42;3.33;;;1.43;;
15398;SDS011;7797;51.428;6.756;2024-03-02T05:15:12;2.37;;;1.50;;
15398;SDS011;7797;51.428;6.756;2024-03-02T05:17:41;1.83;;;1.47;;
15398;SDS011;7797;51.428;6.756;2024-03-02T05:20:12;1.93;;;1.40;;
15398;SDS011;7797;51.428;6.756;2024-03-02T05:22:38;1.03;;;1.03;;
15398;SDS011;7797;51.428;6.756;2024-03-02T05:25:06;1.33;;;1.23;;
15398;SDS011;7797;51.428;6.756;2024-03-02T05:27:33;1.10;;;1.10;;
15398;SDS011;7797;51.428;6.756;2024-03-02T05:30:00;1.90;;;1.70;;
15398;SDS011;7797;51.428;6.756;2024-03-02T05:32:27;1.50;;;1.30;;
15398;SDS011;7797;51.428;6.756;2024-03-02T05:34:54;1.40;;;1.30;;
15398;SDS011;7797;51.428;6.756;2024-03-02T05:37:21;1.60;;;1.50;;
15398;SDS011;7797;51.428;6.756;2024-03-02T05:39:48;1.57;;;1.47;;
15398;SDS011;7797;51.428;6.756;2024-03-02T05:42:15;1.17;;;1.13;;
15398;SDS011;7797;51.428;6.756;2024-03-02T05:44:43;1.70;;;1.33;;
15398;SDS011;7797;51.428;6.756;2024-03-02T05:47:10;1.50;;;1.40;;
15398;SDS011;7797;51.428;6.756;2024-03-02T05:49:37;1.47;;;1.37;;
15398;SDS011;7797;51.428;6.756;2024-03-02T05:52:03;2.17;;;1.57;;
15398;SDS011;7797;51.428;6.756;2024-03-02T05:54:30;2.83;;;1.40;;
15398;SDS011;7797;51.428;6.756;2024-03-02T05:56:57;1.47;;;1.20;;
15398;SDS011;7797;51.428;6.756;2024-03-02T05:59:43;2.47;;;1.60;;
15398;SDS011;7797;51.428;6.756;2024-03-02T06:02:10;3.10;;;1.40;;
15398;SDS011;7797;51.428;6.756;2024-03-02T06:04:37;1.70;;;1.57;;
15398;SDS011;7797;51.428;6.756;2024-03-02T06:07:03;2.47;;;1.67;;
15398;SDS011;7797;51.428;6.756;2024-03-02T06:09:30;2.33;;;1.40;;
15398;SDS011;7797;51.428;6.756;2024-03-02T06:11:57;1.50;;;1.40;;
15398;SDS011;7797;51.428;6.756;2024-03-02T06:14:24;1.50;;;1.40;;
15398;SDS011;7797;51.428;6.756;2024-03-02T06:16:51;2.10;;;1.40;;
15398;SDS011;7797;51.428;6.756;2024-03-02T06:19:17;1.70;;;1.60;;
15398;SDS011;7797;51.428;6.756;2024-03-02T06:21:44;1.90;;;1.43;;
15398;SDS011;7797;51.428;6.756;2024-03-02T06:24:11;2.10;;;1.50;;
15398;SDS011;7797;51.428;6.756;2024-03-02T06:26:38;1.60;;;1.43;;
15398;SDS011;7797;51.428;6.756;2024-03-02T06:29:06;2.43;;;1.80;;
15398;SDS011;7797;51.428;6.756;2024-03-02T06:31:32;1.43;;;1.33;;
15398;SDS011;7797;51.428;6.756;2024-03-02T06:33:59;1.90;;;1.43;;
15398;SDS011;7797;51.428;6.756;2024-03-02T06:36:26;1.50;;;1.40;;
15398;SDS011;7797;51.428;6.756;2024-03-02T06:38:53;1.57;;;1.47;;
15398;SDS011;7797;51.428;6.756;2024-03-02T06:41:19;1.77;;;1.50;;
15398;SDS011;7797;51.428;6.756;2024-03-02T06:43:46;1.63;;;1.53;;
15398;SDS011;7797;51.428;6.756;2024-03-02T06:46:13;2.00;;;1.80;;
15398;SDS011;7797;51.428;6.756;2024-03-02T06:48:41;1.83;;;1.57;;
15398;SDS011;7797;51.428;6.756;2024-03-02T06:51:08;1.47;;;1.30;;
15398;SDS011;7797;51.428;6.756;2024-03-02T06:53:35;1.67;;;1.57;;
15398;SDS011;7797;51.428;6.756;2024-03-02T06:56:02;1.63;;;1.40;;
15398;SDS011;7797;51.428;6.756;2024-03-02T06:58:29;1.40;;;1.30;;
15398;SDS011;7797;51.428;6.756;2024-03-02T07:00:55;1.63;;;1.53;;
15398;SDS011;7797;51.428;6.756;2024-03-02T07:03:22;1.77;;;1.60;;
15398;SDS011;7797;51.428;6.756;2024-03-02T07:05:49;3.20;;;1.73;;
15398;SDS011;7797;51.428;6.756;2024-03-02T07:08:16;2.00;;;1.63;;
15398;SDS011;7797;51.428;6.756;2024-03-02T07:10:42;1.67;;;1.57;;
15398;SDS011;7797;51.428;6.756;2024-03-02T07:13:09;1.70;;;1.60;;
15398;SDS011;7797;51.428;6.756;2024-03-02T07:15:36;1.70;;;1.60;;
15398;SDS011;7797;51.428;6.756;2024-03-02T07:18:03;1.67;;;1.57;;
15398;SDS011;7797;51.428;6.756;2024-03-02T07:20:30;1.60;;;1.50;;
15398;SDS011;7797;51.428;6.756;2024-03-02T07:22:57;2.23;;;1.60;;
15398;SDS011;7797;51.428;6.756;2024-03-02T07:25:24;1.93;;;1.60;;
15398;SDS011;7797;51.428;6.756;2024-03-02T07:27:54;2.10;;;1.80;;
15398;SDS011;7797;51.428;6.756;2024-03-02T07:30:21;2.30;;;1.50;;
15398;SDS011;7797;51.428;6.756;2024-03-02T07:32:49;2.70;;;2.00;;
15398;SDS011;7797;51.428;6.756;2024-03-02T07:35:17;1.70;;;1.60;;
15398;SDS011;7797;51.428;6.756;2024-03-02T07:37:44;2.30;;;1.70;;
15398;SDS011;7797;51.428;6.756;2024-03-02T07:40:11;2.33;;;1.80;;
15398;SDS011;7797;51.428;6.756;2024-03-02T07:42:38;1.83;;;1.73;;
15398;SDS011;7797;51.428;6.756;2024-03-02T07:45:06;1.90;;;1.80;;
15398;SDS011;7797;51.428;6.756;2024-03-02T07:47:34;2.00;;;1.80;;
15398;SDS011;7797;51.428;6.756;2024-03-02T07:50:01;1.77;;;1.67;;
15398;SDS011;7797;51.428;6.756;2024-03-02T07:52:28;1.90;;;1.77;;
15398;SDS011;7797;51.428;6.756;2024-03-02T07:54:55;2.10;;;1.90;;
15398;SDS011;7797;51.428;6.756;2024-03-02T07:57:22;1.80;;;1.70;;
15398;SDS011;7797;51.428;6.756;2024-03-02T07:59:49;1.90;;;1.80;;
15398;SDS011;7797;51.428;6.756;2024-03-02T08:02:16;1.93;;;1.70;;
15398;SDS011;7797;51.428;6.756;2024-03-02T08:04:42;1.67;;;1.57;;
15398;SDS011;7797;51.428;6.756;2024-03-02T08:07:09;2.20;;;1.97;;
15398;SDS011;7797;51.428;6.756;2024-03-02T08:09:36;1.97;;;1.70;;
15398;SDS011;7797;51.428;6.756;2024-03-02T08:12:03;1.97;;;1.87;;
15398;SDS011;7797;51.428;6.756;2024-03-02T08:14:30;3.80;;;2.00;;
15398;SDS011;7797;51.428;6.756;2024-03-02T08:16:56;2.20;;;2.00;;
15398;SDS011;7797;51.428;6.756;2024-03-02T08:19:23;2.43;;;2.23;;
15398;SDS011;7797;51.428;6.756;2024-03-02T08:21:50;3.93;;;2.07;;
15398;SDS011;7797;51.428;6.756;2024-03-02T08:24:17;3.40;;;1.90;;
15398;SDS011;7797;51.428;6.756;2024-03-02T08:26:44;2.23;;;2.03;;
15398;SDS011;7797;51.428;6.756;2024-03-02T08:29:10;2.00;;;1.90;;
15398;SDS011;7797;51.428;6.756;2024-03-02T08:31:38;3.37;;;2.40;;
15398;SDS011;7797;51.428;6.756;2024-03-02T08:34:07;1.90;;;1.80;;
15398;SDS011;7797;51.428;6.756;2024-03-02T08:36:34;2.00;;;1.90;;
15398;SDS011;7797;51.428;6.756;2024-03-02T08:39:01;2.67;;;2.30;;
15398;SDS011;7797;51.428;6.756;2024-03-02T08:41:29;2.40;;;2.03;;
15398;SDS011;7797;51.428;6.756;2024-03-02T08:43:56;2.00;;;1.90;;
15398;SDS011;7797;51.428;6.756;2024-03-02T08:46:23;2.23;;;2.00;;
15398;SDS011;7797;51.428;6.756;2024-03-02T08:48:50;1.83;;;1.73;;
15398;SDS011;7797;51.428;6.756;2024-03-02T08:51:17;2.00;;;1.80;;
15398;SDS011;7797;51.428;6.756;2024-03-02T08:53:50;1.97;;;1.87;;
15398;SDS011;7797;51.428;6.756;2024-03-02T08:56:17;3.20;;;1.87;;
15398;SDS011;7797;51.428;6.756;2024-03-02T08:58:44;2.30;;;1.80;;
15398;SDS011;7797;51.428;6.756;2024-03-02T09:01:10;3.23;;;2.10;;
15398;SDS011;7797;51.428;6.756;2024-03-02T09:03:37;1.93;;;1.83;;
15398;SDS011;7797;51.428;6.756;2024-03-02T09:06:04;2.50;;;1.80;;
15398;SDS011;7797;51.428;6.756;2024-03-02T09:08:31;1.80;;;1.70;;
15398;SDS011;7797;51.428;6.756;2024-03-02T09:10:58;1.90;;;1.80;;
15398;SDS011;7797;51.428;6.756;2024-03-02T09:13:25;1.70;;;1.60;;
15398;SDS011;7797;51.428;6.756;2024-03-02T09:15:52;3.30;;;2.03;;
15398;SDS011;7797;51.428;6.756;2024-03-02T09:18:19;1.97;;;1.83;;
15398;SDS011;7797;51.428;6.756;2024-03-02T09:20:46;1.90;;;1.80;;
15398;SDS011;7797;51.428;6.756;2024-03-02T09:23:12;4.47;;;2.00;;
15398;SDS011;7797;51.428;6.756;2024-03-02T09:25:39;1.90;;;1.80;;
15398;SDS011;7797;51.428;6.756;2024-03-02T09:28:06;2.53;;;1.93;;
15398;SDS011;7797;51.428;6.756;2024-03-02T09:30:34;1.77;;;1.63;;
15398;SDS011;7797;51.428;6.756;2024-03-02T09:33:01;2.33;;;1.80;;
15398;SDS011;7797;51.428;6.756;2024-03-02T09:35:30;1.80;;;1.70;;
15398;SDS011;7797;51.428;6.756;2024-03-02T09:37:57;3.70;;;1.83;;
15398;SDS011;7797;51.428;6.756;2024-03-02T09:40:24;1.70;;;1.60;;
15398;SDS011;7797;51.428;6.756;2024-03-02T09:42:51;1.50;;;1.40;;
15398;SDS011;7797;51.428;6.756;2024-03-02T09:45:23;1.27;;;1.27;;
15398;SDS011;7797;51.428;6.756;2024-03-02T09:47:50;1.60;;;1.50;;
15398;SDS011;7797;51.428;6.756;2024-03-02T09:50:17;2.20;;;1.50;;
15398;SDS011;7797;51.428;6.756;2024-03-02T09:52:46;1.93;;;1.50;;
15398;SDS011;7797;51.428;6.756;2024-03-02T09:55:15;1.00;;;1.00;;
15398;SDS011;7797;51.428;6.756;2024-03-02T09:57:42;2.70;;;1.00;;
15398;SDS011;7797;51.428;6.756;2024-03-02T10:00:09;1.37;;;1.27;;
15398;SDS011;7797;51.428;6.756;2024-03-02T10:02:41;1.10;;;0.97;;
15398;SDS011;7797;51.428;6.756;2024-03-02T10:05:09;1.20;;;0.97;;
15398;SDS011;7797;51.428;6.756;2024-03-02T10:07:36;1.53;;;1.10;;
15398;SDS011;7797;51.428;6.756;2024-03-02T10:10:12;1.93;;;1.20;;
15398;SDS011;7797;51.428;6.756;2024-03-02T10:12:40;2.07;;;1.10;;
15398;SDS011;7797;51.428;6.756;2024-03-02T10:15:07;1.23;;;1.20;;
15398;SDS011;7797;51.428;6.756;2024-03-02T10:17:36;1.80;;;1.00;;
15398;SDS011;7797;51.428;6.756;2024-03-02T10:20:25;1.53;;;1.20;;
15398;SDS011;7797;51.428;6.756;2024-03-02T10:22:52;1.20;;;1.10;;
15398;SDS011;7797;51.428;6.756;2024-03-02T10:25:29;1.13;;;0.93;;
15398;SDS011;7797;51.428;6.756;2024-03-02T10:28:02;1.43;;;1.33;;
15398;SDS011;7797;51.428;6.756;2024-03-02T10:30:32;1.43;;;1.30;;
15398;SDS011;7797;51.428;6.756;2024-03-02T10:33:00;2.57;;;1.30;;
15398;SDS011;7797;51.428;6.756;2024-03-02T10:35:28;1.20;;;1.10;;
15398;SDS011;7797;51.428;6.756;2024-03-02T10:37:55;2.47;;;1.27;;
15398;SDS011;7797;51.428;6.756;2024-03-02T10:40:22;1.90;;;1.37;;
15398;SDS011;7797;51.428;6.756;2024-03-02T10:42:50;1.53;;;1.43;;
15398;SDS011;7797;51.428;6.756;2024-03-02T10:45:20;1.20;;;1.20;;
15398;SDS011;7797;51.428;6.756;2024-03-02T10:47:50;1.20;;;1.10;;
15398;SDS011;7797;51.428;6.756;2024-03-02T10:50:17;1.30;;;1.20;;
15398;SDS011;7797;51.428;6.756;2024-03-02T10:52:45;1.10;;;1.10;;
15398;SDS011;7797;51.428;6.756;2024-03-02T10:55:12;1.73;;;1.17;;
15398;SDS011;7797;51.428;6.756;2024-03-02T10:57:45;1.23;;;1.10;;
15398;SDS011;7797;51.428;6.756;2024-03-02T11:00:17;1.20;;;1.10;;
15398;SDS011;7797;51.428;6.756;2024-03-02T11:02:55;1.47;;;1.20;;
15398;SDS011;7797;51.428;6.756;2024-03-02T11:05:27;1.03;;;1.00;;
15398;SDS011;7797;51.428;6.756;2024-03-02T11:07:57;1.90;;;1.10;;
15398;SDS011;7797;51.428;6.756;2024-03-02T11:10:51;2.70;;;1.13;;
15398;SDS011;7797;51.428;6.756;2024-03-02T11:13:33;0.87;;;0.87;;
15398;SDS011;7797;51.428;6.756;2024-03-02T11:16:19;1.40;;;1.30;;
15398;SDS011;7797;51.428;6.756;2024-03-02T11:19:04;2.27;;;1.20;;
15398;SDS011;7797;51.428;6.756;2024-03-02T11:21:35;1.30;;;1.20;;
15398;SDS011;7797;51.428;6.756;2024-03-02T11:26:48;1.13;;;1.13;;
15398;SDS011;7797;51.428;6.756;2024-03-02T11:32:03;2.10;;;1.00;;
15398;SDS011;7797;51.428;6.756;2024-03-02T11:34:34;2.07;;;1.50;;
15398;SDS011;7797;51.428;6.756;2024-03-02T11:37:02;1.87;;;1.47;;
15398;SDS011;7797;51.428;6.756;2024-03-02T11:39:29;1.90;;;1.30;;
15398;SDS011;7797;51.428;6.756;2024-03-02T11:41:56;1.93;;;1.40;;
15398;SDS011;7797;51.428;6.756;2024-03-02T11:44:28;1.50;;;1.40;;
15398;SDS011;7797;51.428;6.756;2024-03-02T11:46:58;1.97;;;1.87;;
15398;SDS011;7797;51.428;6.756;2024-03-02T11:49:36;1.53;;;1.20;;
15398;SDS011;7797;51.428;6.756;2024-03-02T11:52:15;1.50;;;1.40;;
15398;SDS011;7797;51.428;6.756;2024-03-02T11:54:45;2.70;;;1.57;;
15398;SDS011;7797;51.428;6.756;2024-03-02T11:57:18;1.40;;;1.30;;
15398;SDS011;7797;51.428;6.756;2024-03-02T11:59:46;3.17;;;1.43;;
15398;SDS011;7797;51.428;6.756;2024-03-02T12:02:19;2.10;;;1.30;;
15398;SDS011;7797;51.428;6.756;2024-03-02T12:04:47;2.10;;;1.57;;
15398;SDS011;7797;51.428;6.756;2024-03-02T12:07:21;1.43;;;1.33;;
15398;SDS011;7797;51.428;6.756;2024-03-02T12:10:00;10.47;;;2.83;;
15398;SDS011;7797;51.428;6.756;2024-03-02T12:12:30;2.77;;;1.30;;
15398;SDS011;7797;51.428;6.756;2024-03-02T12:14:56;2.53;;;1.30;;
15398;SDS011;7797;51.428;6.756;2024-03-02T12:17:25;2.23;;;1.47;;
15398;SDS011;7797;51.428;6.756;2024-03-02T12:19:52;2.83;;;1.67;;
15398;SDS011;7797;51.428;6.756;2024-03-02T12:22:19;1.60;;;1.50;;
15398;SDS011;7797;51.428;6.756;2024-03-02T12:24:47;2.73;;;1.33;;
15398;SDS011;7797;51.428;6.756;2024-03-02T12:27:14;2.13;;;1.40;;
15398;SDS011;7797;51.428;6.756;2024-03-02T12:29:42;1.93;;;1.67;;
15398;SDS011;7797;51.428;6.756;2024-03-02T12:32:08;2.83;;;1.50;;
15398;SDS011;7797;51.428;6.756;2024-03-02T12:34:35;1.53;;;1.43;;
15398;SDS011;7797;51.428;6.756;2024-03-02T12:37:04;1.60;;;1.50;;
15398;SDS011;7797;51.428;6.756;2024-03-02T12:39:31;1.73;;;1.60;;
15398;SDS011;7797;51.428;6.756;2024-03-02T12:41:59;2.00;;;1.50;;
15398;SDS011;7797;51.428;6.756;2024-03-02T12:44:26;1.63;;;1.43;;
15398;SDS011;7797;51.428;6.756;2024-03-02T12:46:53;1.67;;;1.27;;
15398;SDS011;7797;51.428;6.756;2024-03-02T12:49:24;2.60;;;1.43;;
15398;SDS011;7797;51.428;6.756;2024-03-02T12:51:51;1.60;;;1.50;;
15398;SDS011;7797;51.428;6.756;2024-03-02T12:54:21;1.30;;;1.30;;
15398;SDS011;7797;51.428;6.756;2024-03-02T12:56:49;1.67;;;1.50;;
15398;SDS011;7797;51.428;6.756;2024-03-02T12:59:20;1.30;;;1.20;;
15398;SDS011;7797;51.428;6.756;2024-03-02T13:01:53;1.63;;;1.53;;
15398;SDS011;7797;51.428;6.756;2024-03-02T13:04:24;3.93;;;1.30;;
15398;SDS011;7797;51.428;6.756;2024-03-02T13:06:52;1.30;;;1.20;;
15398;SDS011;7797;51.428;6.756;2024-03-02T13:09:20;1.90;;;1.40;;
15398;SDS011;7797;51.428;6.756;2024-03-02T13:11:47;1.20;;;1.20;;
15398;SDS011;7797;51.428;6.756;2024-03-02T13:14:14;1.50;;;1.40;;
15398;SDS011;7797;51.428;6.756;2024-03-02T13:16:41;1.40;;;1.17;;
15398;SDS011;7797;51.428;6.756;2024-03-02T13:19:13;1.30;;;1.20;;
15398;SDS011;7797;51.428;6.756;2024-03-02T13:21:40;1.83;;;1.60;;
15398;SDS011;7797;51.428;6.756;2024-03-02T13:24:07;1.00;;;1.00;;
15398;SDS011;7797;51.428;6.756;2024-03-02T13:26:34;1.00;;;1.00;;
15398;SDS011;7797;51.428;6.756;2024-03-02T13:29:01;1.13;;;1.13;;
15398;SDS011;7797;51.428;6.756;2024-03-02T13:31:27;1.30;;;1.20;;
15398;SDS011;7797;51.428;6.756;2024-03-02T13:33:54;1.10;;;1.10;;
15398;SDS011;7797;51.428;6.756;2024-03-02T13:36:21;1.30;;;1.10;;
15398;SDS011;7797;51.428;6.756;2024-03-02T13:38:48;1.37;;;1.20;;
15398;SDS011;7797;51.428;6.756;2024-03-02T13:41:15;1.53;;;1.37;;
15398;SDS011;7797;51.428;6.756;2024-03-02T13:43:41;1.33;;;1.13;;
15398;SDS011;7797;51.428;6.756;2024-03-02T13:46:11;1.10;;;1.10;;
15398;SDS011;7797;51.428;6.756;2024-03-02T13:48:38;1.50;;;1.20;;
15398;SDS011;7797;51.428;6.756;2024-03-02T13:51:05;1.10;;;1.10;;
15398;SDS011;7797;51.428;6.756;2024-03-02T13:53:31;1.30;;;1.23;;
15398;SDS011;7797;51.428;6.756;2024-03-02T13:55:58;1.27;;;1.23;;
15398;SDS011;7797;51.428;6.756;2024-03-02T13:58:25;1.57;;;1.20;;
15398;SDS011;7797;51.428;6.756;2024-03-02T14:00:53;1.47;;;1.10;;
15398;SDS011;7797;51.428;6.756;2024-03-02T14:03:20;1.03;;;0.93;;
15398;SDS011;7797;51.428;6.756;2024-03-02T14:05:49;1.13;;;1.00;;
15398;SDS011;7797;51.428;6.756;2024-03-02T14:08:17;1.27;;;1.17;;
15398;SDS011;7797;51.428;6.756;2024-03-02T14:10:44;2.03;;;1.23;;
15398;SDS011;7797;51.428;6.756;2024-03-02T14:13:11;1.20;;;1.10;;
15398;SDS011;7797;51.428;6.756;2024-03-02T14:15:38;1.00;;;0.93;;
15398;SDS011;7797;51.428;6.756;2024-03-02T14:18:06;3.77;;;1.00;;
15398;SDS011;7797;51.428;6.756;2024-03-02T14:20:33;0.93;;;0.80;;
15398;SDS011;7797;51.428;6.756;2024-03-02T14:22:59;0.90;;;0.90;;
15398;SDS011;7797;51.428;6.756;2024-03-02T14:25:27;1.30;;;0.90;;
15398;SDS011;7797;51.428;6.756;2024-03-02T14:27:57;1.50;;;1.40;;
15398;SDS011;7797;51.428;6.756;2024-03-02T14:30:44;3.03;;;0.93;;
15398;SDS011;7797;51.428;6.756;2024-03-02T14:33:11;1.20;;;1.13;;
15398;SDS011;7797;51.428;6.756;2024-03-02T14:35:38;0.90;;;0.90;;
15398;SDS011;7797;51.428;6.756;2024-03-02T14:38:04;0.90;;;0.90;;
15398;SDS011;7797;51.428;6.756;2024-03-02T14:40:31;1.10;;;1.10;;
15398;SDS011;7797;51.428;6.756;2024-03-02T14:42:58;1.10;;;1.10;;
15398;SDS011;7797;51.428;6.756;2024-03-02T14:45:28;1.60;;;1.00;;
15398;SDS011;7797;51.428;6.756;2024-03-02T14:47:55;1.57;;;1.00;;
15398;SDS011;7797;51.428;6.756;2024-03-02T14:50:26;0.93;;;0.93;;
15398;SDS011;7797;51.428;6.756;2024-03-02T14:52:54;1.60;;;1.13;;
15398;SDS011;7797;51.428;6.756;2024-03-02T14:55:24;1.13;;;1.13;;
15398;SDS011;7797;51.428;6.756;2024-03-02T14:57:51;1.93;;;1.60;;
15398;SDS011;7797;51.428;6.756;2024-03-02T15:00:17;1.07;;;1.00;;
15398;SDS011;7797;51.428;6.756;2024-03-02T15:02:44;2.07;;;1.23;;
15398;SDS011;7797;51.428;6.756;2024-03-02T15:05:11;1.50;;;1.40;;
15398;SDS011;7797;51.428;6.756;2024-03-02T15:07:38;1.47;;;1.37;;
15398;SDS011;7797;51.428;6.756;2024-03-02T15:10:05;1.50;;;1.17;;
15398;SDS011;7797;51.428;6.756;2024-03-02T15:12:32;1.23;;;1.10;;
15398;SDS011;7797;51.428;6.756;2024-03-02T15:14:59;1.30;;;1.23;;
15398;SDS011;7797;51.428;6.756;2024-03-02T15:17:26;2.27;;;1.83;;